Time;durP1;ratioP1;P1;durP2;ratioP2;P2;SDS_P1;SDS_P2;PMS_P1;PMS_P2;Temp;Humidity;BMP_temperature;BMP_pressure;BME280_temperature;BME280_humidity;BME280_pressure;Samples;Min_cycle;Max_cycle;Signal;HPM_P1;HPM_P2
2024/02/03 00:01:27;;;;;;;12.00;7.10;;;;;;;5.90;85.82;99706.64;129775;1278;107449;-82
2024/02/03 00:04:36;;;;;;;15.40;7.50;;;;;;;5.91;86.05;99707.30;129933;1264;108386;-83
2024/02/03 00:07:42;;;;;;;16.60;7.90;;;;;;;5.97;85.79;99699.48;130053;1266;105974;-82
2024/02/03 00:10:48;;;;;;;13.70;7.60;;;;;;;6.03;86.03;99694.98;129987;1267;107040;-84
2024/02/03 00:13:54;;;;;;;13.60;7.20;;;;;;;6.05;85.83;99681.47;129937;1264;108778;-83
2024/02/03 00:17:00;;;;;;;15.00;8.70;;;;;;;6.06;86.08;99665.55;129941;1264;106228;-83
2024/02/03 00:20:07;;;;;;;14.20;7.70;;;;;;;6.04;86.17;99662.55;129924;1267;108349;-85
2024/02/03 00:23:13;;;;;;;15.30;7.30;;;;;;;6.04;86.14;99669.27;129989;1266;108438;-82
2024/02/03 00:26:18;;;;;;;15.50;7.70;;;;;;;6.05;86.52;99658.90;129953;1264;106708;-82
2024/02/03 00:29:24;;;;;;;10.60;7.50;;;;;;;6.10;86.59;99658.11;129777;1264;107534;-84
2024/02/03 00:32:30;;;;;;;14.50;8.50;;;;;;;6.15;86.46;99649.77;129853;1267;106452;-83
2024/02/03 00:35:36;;;;;;;13.80;7.90;;;;;;;6.15;86.65;99641.27;129929;1264;108512;-84
2024/02/03 00:38:41;;;;;;;9.50;6.60;;;;;;;6.09;86.49;99628.17;129934;1264;108805;-83
2024/02/03 00:41:47;;;;;;;13.80;7.20;;;;;;;6.11;86.70;99626.91;129982;1264;106575;-84
2024/02/03 00:44:52;;;;;;;11.70;7.70;;;;;;;6.14;87.08;99626.84;130030;1266;107663;-81
2024/02/03 00:47:58;;;;;;;11.50;7.40;;;;;;;6.17;87.11;99637.73;129962;1268;106816;-82
2024/02/03 00:51:09;;;;;;;13.70;7.90;;;;;;;6.21;87.28;99643.14;129990;1267;107152;-81
2024/02/03 00:54:15;;;;;;;15.00;8.40;;;;;;;6.24;87.32;99640.39;130050;1265;108018;-83
2024/02/03 00:57:21;;;;;;;15.00;7.30;;;;;;;6.22;87.70;99626.80;129908;1266;107198;-85
2024/02/03 01:00:27;;;;;;;11.80;6.20;;;;;;;6.22;87.91;99623.45;129855;1264;107307;-84
2024/02/03 01:03:33;;;;;;;9.00;6.70;;;;;;;6.25;87.58;99619.11;129916;1267;106627;-84
2024/02/03 01:06:39;;;;;;;10.40;6.60;;;;;;;6.29;88.13;99610.41;129987;1264;106329;-84
2024/02/03 01:09:45;;;;;;;12.20;7.30;;;;;;;6.33;88.17;99615.23;129935;1267;107809;-84
2024/02/03 01:12:51;;;;;;;17.90;11.40;;;;;;;6.33;87.96;99617.91;129935;1267;107863;-85
2024/02/03 01:15:57;;;;;;;14.20;7.70;;;;;;;6.34;87.93;99614.45;129916;1267;106433;-85
2024/02/03 01:19:03;;;;;;;12.30;6.20;;;;;;;6.37;88.07;99607.64;130032;1264;108804;-83
2024/02/03 01:22:08;;;;;;;14.30;7.20;;;;;;;6.39;88.26;99597.74;130013;1267;107786;-83
2024/02/03 01:25:14;;;;;;;9.90;6.20;;;;;;;6.44;87.98;99595.64;130056;1267;108687;-84
2024/02/03 01:28:20;;;;;;;12.70;7.50;;;;;;;6.50;88.47;99594.20;129979;1267;108110;-84
2024/02/03 01:31:26;;;;;;;10.90;6.30;;;;;;;6.51;88.47;99596.23;129954;1264;107911;-83
2024/02/03 01:34:32;;;;;;;16.10;7.90;;;;;;;6.53;88.49;99593.23;129982;1264;107102;-83
2024/02/03 01:37:38;;;;;;;8.60;5.60;;;;;;;6.58;89.05;99603.21;130031;1264;108714;-84
2024/02/03 01:40:43;;;;;;;10.70;6.40;;;;;;;6.60;88.97;99596.10;130003;1268;107008;-85
2024/02/03 01:43:49;;;;;;;10.40;6.80;;;;;;;6.64;88.62;99599.73;130026;1262;108606;-83
2024/02/03 01:46:55;;;;;;;9.80;6.30;;;;;;;6.67;89.00;99600.94;130050;1267;108708;-83
2024/02/03 01:50:03;;;;;;;7.70;5.30;;;;;;;6.66;89.11;99602.64;130043;1267;107831;-84
2024/02/03 01:53:10;;;;;;;6.90;4.80;;;;;;;6.65;89.31;99598.26;130093;1264;108670;-84
2024/02/03 01:56:18;;;;;;;7.80;5.60;;;;;;;6.67;90.08;99602.20;130057;1262;107802;-83
2024/02/03 01:59:27;;;;;;;9.50;5.90;;;;;;;6.68;90.34;99605.79;130079;1266;107599;-83
2024/02/03 02:02:33;;;;;;;8.40;6.20;;;;;;;6.68;90.65;99622.05;130133;1264;108588;-83
2024/02/03 02:05:38;;;;;;;7.40;5.30;;;;;;;6.68;90.53;99610.89;130029;1265;108578;-83
2024/02/03 02:08:44;;;;;;;7.30;5.50;;;;;;;6.69;91.04;99614.17;130078;1264;108660;-83
2024/02/03 02:11:51;;;;;;;6.90;5.70;;;;;;;6.73;90.75;99607.98;130017;1267;108617;-84
2024/02/03 02:14:57;;;;;;;7.50;5.80;;;;;;;6.74;91.22;99616.21;130057;1266;107774;-83
2024/02/03 02:18:03;;;;;;;6.80;5.20;;;;;;;6.73;90.74;99613.48;130084;1267;107957;-83
2024/02/03 02:21:09;;;;;;;7.70;4.70;;;;;;;6.77;91.05;99609.42;129984;1267;108864;-82
2024/02/03 02:24:17;;;;;;;7.00;5.00;;;;;;;6.79;91.76;99609.73;130043;1267;107689;-83
2024/02/03 02:27:23;;;;;;;8.20;5.40;;;;;;;6.80;91.13;99611.72;130009;1266;108760;-83
2024/02/03 02:30:29;;;;;;;8.20;6.00;;;;;;;6.82;91.60;99599.16;130038;1266;108697;-83
2024/02/03 02:33:34;;;;;;;11.40;6.10;;;;;;;6.81;91.75;99593.45;130007;1264;108498;-82
2024/02/03 02:36:40;;;;;;;8.20;4.90;;;;;;;6.82;91.25;99591.59;130052;1267;108658;-82
2024/02/03 02:39:46;;;;;;;7.00;5.00;;;;;;;6.84;91.85;99594.17;130074;1264;108814;-81
2024/02/03 02:42:51;;;;;;;6.50;4.90;;;;;;;6.85;91.71;99587.95;130060;1264;108625;-83
2024/02/03 02:45:58;;;;;;;6.70;4.80;;;;;;;6.86;92.08;99588.55;130056;1267;108575;-83
2024/02/03 02:49:07;;;;;;;6.20;4.30;;;;;;;6.85;92.52;99588.26;130076;1267;107637;-82
2024/02/03 02:52:13;;;;;;;5.30;3.90;;;;;;;6.84;92.77;99595.46;130053;1266;108650;-82
2024/02/03 02:55:19;;;;;;;5.90;4.10;;;;;;;6.86;93.02;99590.48;130036;1266;108815;-83
2024/02/03 02:58:25;;;;;;;6.00;4.20;;;;;;;6.90;92.75;99582.35;130042;1266;108755;-83
2024/02/03 03:01:30;;;;;;;7.50;5.10;;;;;;;6.95;92.73;99582.25;130048;1267;106500;-82
2024/02/03 03:04:36;;;;;;;5.10;3.80;;;;;;;6.96;92.88;99598.08;129999;1263;108693;-82
2024/02/03 03:07:42;;;;;;;5.00;3.90;;;;;;;6.92;93.41;99595.63;130055;1266;109523;-82
2024/02/03 03:10:47;;;;;;;7.00;4.40;;;;;;;6.89;93.69;99588.79;130015;1267;106348;-82
2024/02/03 03:13:53;;;;;;;14.30;8.00;;;;;;;6.93;93.70;99585.73;130041;1267;106318;-83
2024/02/03 03:16:59;;;;;;;8.10;5.70;;;;;;;6.99;93.00;99580.64;130054;1262;108703;-82
2024/02/03 03:20:07;;;;;;;6.60;4.70;;;;;;;7.01;93.12;99577.94;130010;1265;108240;-81
2024/02/03 03:23:13;;;;;;;7.30;5.10;;;;;;;7.00;93.50;99593.77;130043;1267;107139;-82
2024/02/03 03:26:18;;;;;;;8.40;6.60;;;;;;;6.98;93.92;99596.41;130076;1265;106532;-82
2024/02/03 03:29:24;;;;;;;5.20;3.80;;;;;;;7.01;93.91;99594.12;130114;1267;106473;-83
2024/02/03 03:32:29;;;;;;;9.30;6.40;;;;;;;7.02;94.48;99602.77;129967;1267;108723;-82
2024/02/03 03:35:34;;;;;;;6.30;3.90;;;;;;;6.97;95.23;99596.17;130076;1266;107006;-82
2024/02/03 03:38:42;;;;;;;5.50;4.10;;;;;;;6.94;95.45;99610.64;130041;1267;108400;-83
2024/02/03 03:41:48;;;;;;;4.80;3.60;;;;;;;6.91;95.42;99609.48;130100;1266;106839;-83
2024/02/03 03:44:53;;;;;;;5.10;4.30;;;;;;;6.94;95.83;99614.29;129931;1267;108615;-81
2024/02/03 03:47:59;;;;;;;5.30;4.00;;;;;;;6.93;96.56;99624.80;129713;1267;181155;-82
2024/02/03 03:51:05;;;;;;;4.60;3.60;;;;;;;6.89;96.67;99621.16;129834;1267;108773;-83
2024/02/03 03:54:11;;;;;;;6.20;3.70;;;;;;;6.92;96.23;99620.86;129785;1267;108657;-82
2024/02/03 03:57:16;;;;;;;5.20;3.90;;;;;;;6.94;96.71;99623.20;129847;1267;108724;-82
2024/02/03 04:00:23;;;;;;;5.40;4.30;;;;;;;6.95;96.95;99615.98;129893;1264;107567;-85
2024/02/03 04:03:29;;;;;;;6.60;4.10;;;;;;;6.91;97.87;99619.34;129892;1268;107452;-83
2024/02/03 04:06:35;;;;;;;4.90;3.60;;;;;;;6.87;98.12;99612.50;130047;1266;108094;-84
2024/02/03 04:09:47;;;;;;;5.90;3.80;;;;;;;6.85;97.89;99613.40;130040;1264;108622;-83
2024/02/03 04:12:53;;;;;;;4.90;3.50;;;;;;;6.88;97.71;99601.42;130003;1266;108668;-83
2024/02/03 04:15:59;;;;;;;5.10;4.00;;;;;;;6.94;97.86;99605.81;130052;1265;107544;-84
2024/02/03 04:19:05;;;;;;;4.40;3.80;;;;;;;6.97;97.19;99607.11;130013;1266;108765;-83
2024/02/03 04:22:12;;;;;;;4.50;3.60;;;;;;;6.98;97.01;99603.71;130065;1264;108008;-85
2024/02/03 04:25:17;;;;;;;5.10;3.80;;;;;;;7.00;97.45;99605.56;130023;1264;108634;-84
2024/02/03 04:28:23;;;;;;;5.70;4.20;;;;;;;7.02;97.76;99605.38;130007;1267;108526;-83
2024/02/03 04:31:28;;;;;;;4.90;4.20;;;;;;;7.07;97.45;99605.45;130023;1265;108826;-84
2024/02/03 04:34:34;;;;;;;5.20;3.60;;;;;;;7.10;97.23;99603.25;130041;1265;108399;-84
2024/02/03 04:37:40;;;;;;;4.00;3.10;;;;;;;7.12;96.76;99611.58;129981;1262;108957;-83
2024/02/03 04:40:45;;;;;;;5.30;3.20;;;;;;;7.16;96.80;99610.13;130039;1266;109395;-83
2024/02/03 04:43:51;;;;;;;4.90;4.00;;;;;;;7.21;96.61;99609.33;130021;1267;108583;-83
2024/02/03 04:46:56;;;;;;;4.70;3.80;;;;;;;7.25;97.00;99611.38;130064;1267;108694;-82
2024/02/03 04:50:04;;;;;;;5.20;3.90;;;;;;;7.27;97.03;99618.59;130008;1267;108651;-83
2024/02/03 04:53:10;;;;;;;4.80;3.40;;;;;;;7.26;97.33;99627.85;130019;1267;108643;-83
2024/02/03 04:56:16;;;;;;;4.40;3.30;;;;;;;7.26;96.88;99623.09;130005;1267;108705;-83
2024/02/03 04:59:21;;;;;;;12.90;8.80;;;;;;;7.27;97.23;99617.50;130075;1267;107622;-82
2024/02/03 05:02:27;;;;;;;6.60;4.30;;;;;;;7.31;96.90;99611.67;130060;1266;108452;-84
2024/02/03 05:05:34;;;;;;;10.20;6.70;;;;;;;7.30;97.34;99616.38;130008;1264;107225;-83
2024/02/03 05:08:40;;;;;;;7.50;5.00;;;;;;;7.26;98.53;99611.06;130023;1267;108618;-85
2024/02/03 05:11:45;;;;;;;42.20;21.50;;;;;;;7.28;97.97;99614.81;130031;1266;108779;-84
2024/02/03 05:14:51;;;;;;;18.90;9.50;;;;;;;7.30;98.38;99619.52;130008;1266;108536;-83
2024/02/03 05:17:56;;;;;;;6.40;4.70;;;;;;;7.28;98.38;99615.16;129943;1275;107728;-83
2024/02/03 05:21:02;;;;;;;15.90;9.20;;;;;;;7.23;99.31;99613.37;130048;1265;106685;-83
2024/02/03 05:24:08;;;;;;;15.80;10.50;;;;;;;7.22;98.91;99608.98;130048;1267;108762;-83
2024/02/03 05:27:14;;;;;;;6.60;5.40;;;;;;;7.28;98.69;99599.77;130014;1266;107909;-83
2024/02/03 05:30:20;;;;;;;5.70;4.30;;;;;;;7.33;98.72;99597.50;129763;1266;108937;-83
2024/02/03 05:33:25;;;;;;;8.00;5.30;;;;;;;7.35;98.49;99583.92;129833;1264;109237;-84
2024/02/03 05:36:31;;;;;;;6.10;4.40;;;;;;;7.35;98.63;99592.86;129837;1267;108591;-83
2024/02/03 05:39:37;;;;;;;9.30;7.30;;;;;;;7.33;98.89;99589.60;130050;1264;108230;-84
2024/02/03 05:42:42;;;;;;;9.90;5.70;;;;;;;7.33;98.85;99583.33;130040;1267;108784;-83
2024/02/03 05:45:48;;;;;;;13.50;9.30;;;;;;;7.37;98.34;99587.01;130092;1265;108679;-82
2024/02/03 05:48:54;;;;;;;6.20;4.50;;;;;;;7.44;98.61;99595.73;130079;1268;108449;-82
2024/02/03 05:51:59;;;;;;;7.30;5.20;;;;;;;7.41;99.20;99610.66;130053;1263;108615;-82
2024/02/03 05:55:06;;;;;;;4.50;3.60;;;;;;;7.40;98.71;99618.76;130066;1265;108548;-82
2024/02/03 05:58:12;;;;;;;10.70;7.20;;;;;;;7.40;98.93;99622.26;130028;1267;108685;-82
2024/02/03 06:01:22;;;;;;;4.90;3.90;;;;;;;7.43;98.84;99622.90;130061;1266;107996;-82
2024/02/03 06:04:27;;;;;;;4.90;3.60;;;;;;;7.42;98.72;99624.35;130034;1266;108632;-83
2024/02/03 06:07:33;;;;;;;18.90;9.00;;;;;;;7.44;98.68;99626.00;130042;1267;108481;-84
2024/02/03 06:10:39;;;;;;;5.90;4.10;;;;;;;7.46;98.67;99620.83;130066;1264;108747;-82
2024/02/03 06:13:45;;;;;;;102.00;44.40;;;;;;;7.48;98.43;99621.52;130035;1262;107830;-82
2024/02/03 06:16:51;;;;;;;26.90;11.90;;;;;;;7.50;98.69;99633.19;130050;1266;108731;-82
2024/02/03 06:19:57;;;;;;;45.60;16.50;;;;;;;7.51;98.49;99624.77;130073;1266;107800;-83
2024/02/03 06:23:02;;;;;;;90.30;30.40;;;;;;;7.54;98.46;99624.47;130011;1266;108737;-85
2024/02/03 06:26:09;;;;;;;81.30;26.60;;;;;;;7.59;98.29;99623.36;130203;1268;107605;-82
2024/02/03 06:29:15;;;;;;;50.50;17.20;;;;;;;7.59;98.83;99635.29;129968;1267;107605;-82
2024/02/03 06:32:21;;;;;;;11.10;6.40;;;;;;;7.57;99.02;99633.99;129952;1267;108701;-83
2024/02/03 06:35:26;;;;;;;8.20;5.00;;;;;;;7.55;99.08;99633.30;130044;1262;107900;-83
2024/02/03 06:38:32;;;;;;;196.60;63.50;;;;;;;7.51;99.69;99638.31;130063;1265;107147;-84
2024/02/03 06:41:37;;;;;;;133.90;44.20;;;;;;;7.53;98.86;99633.95;130065;1267;107144;-83
2024/02/03 06:44:43;;;;;;;12.90;6.60;;;;;;;7.60;98.96;99638.28;130119;1267;106435;-83
2024/02/03 06:47:49;;;;;;;15.80;10.40;;;;;;;7.65;99.06;99636.38;130083;1267;107710;-84
2024/02/03 06:50:54;;;;;;;29.80;19.60;;;;;;;7.69;98.76;99645.15;130004;1267;108622;-82
2024/02/03 06:54:00;;;;;;;7.20;5.70;;;;;;;7.68;98.85;99651.42;130091;1267;106509;-83
2024/02/03 06:57:06;;;;;;;6.50;4.80;;;;;;;7.66;98.98;99650.96;130110;1267;107364;-82
2024/02/03 07:00:14;;;;;;;16.10;11.60;;;;;;;7.68;99.45;99653.08;130203;1266;108625;-83
2024/02/03 07:03:19;;;;;;;12.60;9.70;;;;;;;7.73;99.19;99650.10;130030;1267;107784;-83
2024/02/03 07:06:25;;;;;;;14.70;11.10;;;;;;;7.74;99.25;99645.70;130066;1267;107900;-82
2024/02/03 07:09:31;;;;;;;8.70;6.70;;;;;;;7.77;98.91;99642.09;130002;1265;109137;-82
2024/02/03 07:12:36;;;;;;;88.90;37.40;;;;;;;7.78;99.30;99648.20;129952;1265;107264;-82
2024/02/03 07:15:42;;;;;;;70.90;33.50;;;;;;;7.80;98.89;99634.88;129975;1267;108022;-82
2024/02/03 07:18:47;;;;;;;61.40;30.60;;;;;;;7.87;98.82;99639.13;129853;1267;108725;-81
2024/02/03 07:21:53;;;;;;;48.40;25.40;;;;;;;7.90;99.01;99654.30;129740;1267;108649;-82
2024/02/03 07:24:59;;;;;;;51.20;25.90;;;;;;;7.89;98.87;99657.02;129768;1267;107691;-85
2024/02/03 07:28:04;;;;;;;78.40;38.50;;;;;;;7.93;98.77;99658.27;129984;1264;108678;-83
2024/02/03 07:31:10;;;;;;;84.80;42.80;;;;;;;7.99;98.54;99665.30;129964;1267;108372;-82
2024/02/03 07:34:15;;;;;;;68.50;35.70;;;;;;;8.02;98.65;99661.19;130064;1267;107535;-83
2024/02/03 07:37:21;;;;;;;45.70;22.10;;;;;;;8.01;98.44;99660.98;130043;1267;107186;-82
2024/02/03 07:40:27;;;;;;;28.20;13.80;;;;;;;7.97;99.08;99671.84;130086;1265;106992;-83
2024/02/03 07:43:32;;;;;;;18.20;10.00;;;;;;;7.91;99.11;99662.91;130040;1267;108725;-82
2024/02/03 07:46:39;;;;;;;90.00;44.70;;;;;;;7.93;99.24;99662.29;130108;1265;108363;-84
2024/02/03 07:49:44;;;;;;;39.60;22.50;;;;;;;7.97;99.22;99657.14;130050;1266;108638;-83
2024/02/03 07:52:50;;;;;;;18.60;11.00;;;;;;;7.97;99.39;99655.34;130116;1264;108671;-83
2024/02/03 07:55:56;;;;;;;26.20;15.80;;;;;;;7.97;99.36;99649.56;129950;1267;107458;-83
2024/02/03 07:59:01;;;;;;;13.10;8.30;;;;;;;8.01;99.12;99650.92;129977;1267;106628;-83
2024/02/03 08:02:07;;;;;;;18.90;11.90;;;;;;;8.03;99.27;99648.21;130216;1267;108660;-83
2024/02/03 08:05:13;;;;;;;36.30;26.30;;;;;;;8.10;99.17;99657.78;129932;1267;107707;-78
2024/02/03 08:08:18;;;;;;;15.60;11.60;;;;;;;8.14;98.88;99651.19;129774;1267;106726;-77
2024/02/03 08:11:24;;;;;;;23.00;16.00;;;;;;;8.17;98.82;99653.39;129838;1264;106078;-79
2024/02/03 08:14:29;;;;;;;9.30;6.90;;;;;;;8.18;98.74;99645.86;129794;1265;106714;-79
2024/02/03 08:17:35;;;;;;;30.80;20.70;;;;;;;8.20;98.69;99648.47;129786;1267;107667;-78
2024/02/03 08:20:41;;;;;;;11.00;8.30;;;;;;;8.28;98.61;99649.87;129879;1268;106929;-79
2024/02/03 08:23:46;;;;;;;9.20;7.30;;;;;;;8.29;99.13;99662.53;129868;1267;105532;-79
2024/02/03 08:26:52;;;;;;;12.00;7.70;;;;;;;8.19;99.67;99665.10;129503;1267;108776;-82
2024/02/03 08:29:58;;;;;;;14.20;9.60;;;;;;;8.14;99.69;99665.73;129540;1267;107325;-81
2024/02/03 08:33:04;;;;;;;11.20;7.80;;;;;;;8.17;99.62;99662.40;129803;1267;105927;-80
2024/02/03 08:36:11;;;;;;;16.50;11.90;;;;;;;8.21;99.70;99666.39;130075;1267;108685;-79
2024/02/03 08:39:16;;;;;;;13.50;9.40;;;;;;;8.23;99.54;99671.89;130150;1264;108401;-79
2024/02/03 08:42:22;;;;;;;8.40;6.50;;;;;;;8.25;99.44;99670.14;129755;1268;106886;-80
2024/02/03 08:45:28;;;;;;;13.40;8.70;;;;;;;8.26;99.27;99665.79;129737;1264;108697;-80
2024/02/03 08:48:33;;;;;;;107.70;49.70;;;;;;;8.31;99.08;99665.86;130062;1264;107463;-79
2024/02/03 08:51:39;;;;;;;106.50;51.40;;;;;;;8.35;98.76;99668.46;129998;1264;106311;-80
2024/02/03 08:54:45;;;;;;;76.80;41.00;;;;;;;8.36;98.52;99664.85;129861;1269;108664;-79
2024/02/03 08:57:51;;;;;;;50.50;25.50;;;;;;;8.36;98.39;99666.21;129851;1267;107957;-79
2024/02/03 09:00:56;;;;;;;134.90;60.10;;;;;;;8.38;98.62;99664.64;130055;1267;107390;-80
2024/02/03 09:04:04;;;;;;;16.80;9.60;;;;;;;8.44;98.92;99675.02;129948;1265;107620;-79
2024/02/03 09:07:10;;;;;;;74.90;35.40;;;;;;;8.47;99.14;99672.60;129811;1267;108657;-78
2024/02/03 09:10:15;;;;;;;22.70;12.10;;;;;;;8.50;99.44;99674.38;129611;1264;108654;-79
2024/02/03 09:13:21;;;;;;;138.20;55.00;;;;;;;8.50;99.36;99676.20;129567;1270;108803;-79
2024/02/03 09:16:27;;;;;;;72.90;30.00;;;;;;;8.49;99.13;99665.45;129509;1270;107669;-79
2024/02/03 09:19:33;;;;;;;109.50;48.10;;;;;;;8.55;99.09;99668.62;129769;1268;108806;-79
2024/02/03 09:22:39;;;;;;;49.00;21.90;;;;;;;8.58;99.35;99676.75;129826;1267;107797;-79
2024/02/03 09:25:44;;;;;;;200.40;81.90;;;;;;;8.56;99.77;99687.86;129741;1276;107771;-79
2024/02/03 09:28:56;;;;;;;83.80;40.10;;;;;;;8.52;99.91;99688.75;129743;1264;108487;-80
2024/02/03 09:32:02;;;;;;;48.90;24.10;;;;;;;8.53;100.00;99693.08;129607;1267;108714;-81
2024/02/03 09:35:09;;;;;;;76.70;42.80;;;;;;;8.56;100.00;99686.98;129688;1269;107606;-81
2024/02/03 09:38:15;;;;;;;75.20;35.10;;;;;;;8.57;99.93;99691.23;129681;1264;109228;-82
2024/02/03 09:41:22;;;;;;;39.20;19.60;;;;;;;8.59;99.99;99683.98;129671;1264;108834;-80
2024/02/03 09:44:27;;;;;;;18.80;12.40;;;;;;;8.60;99.71;99686.69;129562;1270;108741;-81
2024/02/03 09:47:33;;;;;;;26.90;15.60;;;;;;;8.65;99.76;99679.88;129578;1270;107254;-80
2024/02/03 09:50:41;;;;;;;7.60;5.70;;;;;;;8.67;99.51;99675.73;129549;1270;106735;-80
2024/02/03 09:53:47;;;;;;;5.80;4.80;;;;;;;8.66;99.38;99683.61;129731;1277;108410;-80
2024/02/03 09:56:53;;;;;;;7.00;5.60;;;;;;;8.67;99.12;99675.59;129669;1265;108615;-80
2024/02/03 09:59:59;;;;;;;15.40;10.20;;;;;;;8.74;99.10;99676.45;129857;1267;108219;-81
2024/02/03 10:03:15;;;;;;;5.50;4.50;;;;;;;8.82;98.85;99666.06;129789;1267;108677;-80
2024/02/03 10:06:21;;;;;;;8.00;6.00;;;;;;;8.87;98.66;99660.41;129736;1267;106421;-80
2024/02/03 10:09:27;;;;;;;6.70;5.40;;;;;;;8.96;98.35;99657.16;129833;1267;108763;-80
2024/02/03 10:12:33;;;;;;;5.00;3.80;;;;;;;9.04;97.99;99660.80;129560;1270;108784;-80
2024/02/03 10:15:40;;;;;;;6.20;5.00;;;;;;;9.10;97.62;99655.75;129895;1265;108431;-80
2024/02/03 10:18:48;;;;;;;6.20;4.20;;;;;;;9.16;97.25;99657.60;129693;1267;108796;-80
2024/02/03 10:21:54;;;;;;;5.60;4.40;;;;;;;9.21;97.55;99659.45;129643;1267;108149;-79
2024/02/03 10:25:09;;;;;;;5.20;3.90;;;;;;;9.22;97.22;99651.66;129686;1263;107682;-76
2024/02/03 10:28:18;;;;;;;4.40;3.60;;;;;;;9.24;97.06;99659.05;129716;1278;109178;-77
2024/02/03 10:31:24;;;;;;;4.50;3.60;;;;;;;9.26;96.18;99651.09;129740;1267;106952;-76
2024/02/03 10:34:31;;;;;;;4.80;3.60;;;;;;;9.28;96.21;99652.84;129974;1267;108664;-77
2024/02/03 10:37:37;;;;;;;7.30;5.60;;;;;;;9.31;96.36;99647.91;129935;1267;107566;-79
2024/02/03 10:40:43;;;;;;;9.70;7.90;;;;;;;9.30;96.02;99650.49;129900;1277;107867;-84
2024/02/03 10:43:52;;;;;;;48.90;28.70;;;;;;;9.30;95.94;99648.75;129774;1267;106767;-87
2024/02/03 10:47:01;;;;;;;43.10;23.20;;;;;;;9.37;96.24;99636.04;130013;1265;106463;-87
2024/02/03 10:50:10;;;;;;;6.60;4.70;;;;;;;9.48;95.50;99644.59;130767;1264;108714;-86
2024/02/03 10:53:19;;;;;;;39.60;19.60;;;;;;;9.46;94.83;99644.95;130123;1264;107186;-86
2024/02/03 10:56:29;;;;;;;22.70;12.30;;;;;;;9.50;95.13;99647.32;130016;1277;108112;-87
2024/02/03 10:59:35;;;;;;;41.90;19.90;;;;;;;9.60;95.11;99645.41;130122;1265;107965;-87
2024/02/03 11:02:50;;;;;;;21.40;11.70;;;;;;;9.71;94.87;99648.73;129895;1265;108871;-86
2024/02/03 11:05:55;;;;;;;79.90;36.50;;;;;;;9.81;93.71;99643.77;130063;1267;107630;-87
2024/02/03 11:09:16;;;;;;;32.90;16.30;;;;;;;9.93;93.98;99642.05;130121;1266;107385;-87
2024/02/03 11:12:22;;;;;;;205.80;89.80;;;;;;;9.98;93.46;99636.77;130042;1275;108798;-86
2024/02/03 11:15:27;;;;;;;52.50;24.60;;;;;;;9.99;92.89;99628.58;130104;1266;106683;-87
2024/02/03 11:18:41;;;;;;;27.10;13.10;;;;;;;10.01;92.77;99638.34;130903;1264;107811;-82
2024/02/03 11:21:47;;;;;;;41.00;17.90;;;;;;;10.03;92.80;99641.95;130682;1266;108677;-85
2024/02/03 11:25:05;;;;;;;103.80;39.50;;;;;;;10.02;93.19;99648.38;130370;1267;106753;-85
2024/02/03 11:28:18;;;;;;;90.20;40.60;;;;;;;10.01;92.14;99655.09;130401;1276;107532;-84
2024/02/03 11:31:33;;;;;;;69.00;29.70;;;;;;;10.00;91.96;99656.06;129972;1263;107279;-83
2024/02/03 11:34:40;;;;;;;177.10;69.70;;;;;;;9.98;92.98;99644.53;130613;1266;108992;-87
2024/02/03 11:37:46;;;;;;;219.50;84.10;;;;;;;9.99;92.17;99645.73;130002;1267;108791;-87
2024/02/03 11:40:56;;;;;;;73.20;32.80;;;;;;;9.99;92.46;99642.88;130252;1267;108599;-86
2024/02/03 11:44:02;;;;;;;40.30;20.20;;;;;;;10.04;92.49;99638.77;129957;1268;109756;-87
2024/02/03 11:47:08;;;;;;;139.40;65.30;;;;;;;10.08;92.39;99636.21;130029;1269;106430;-87
2024/02/03 11:50:15;;;;;;;54.20;28.50;;;;;;;10.13;93.09;99639.80;130609;1264;108395;-88
2024/02/03 11:53:30;;;;;;;50.80;26.50;;;;;;;10.14;92.24;99646.21;129832;1270;107503;-85
2024/02/03 11:56:37;;;;;;;20.00;11.10;;;;;;;10.07;91.96;99640.40;129906;1269;107594;-84
2024/02/03 11:59:43;;;;;;;23.80;14.70;;;;;;;10.03;92.52;99647.58;129981;1270;107335;-85
2024/02/03 12:03:20;;;;;;;23.70;15.60;;;;;;;10.02;92.44;99637.54;130180;1267;107439;-86
2024/02/03 12:06:28;;;;;;;17.40;12.20;;;;;;;10.06;92.22;99631.63;130565;1266;107627;-86
2024/02/03 12:09:39;;;;;;;11.80;7.50;;;;;;;10.10;92.09;99635.45;130116;1269;107837;-87
2024/02/03 12:13:12;;;;;;;12.00;6.60;;;;;;;10.08;91.60;99632.34;130222;1267;106461;-84
2024/02/03 12:16:36;;;;;;;7.70;4.90;;;;;;;10.09;91.62;99624.08;129930;1267;107696;-87
2024/02/03 12:19:43;;;;;;;10.80;5.50;;;;;;;10.10;91.26;99638.52;129890;1267;107668;-85
2024/02/03 12:22:50;;;;;;;9.50;5.60;;;;;;;10.08;91.50;99631.58;130075;1267;108707;-86
2024/02/03 12:25:57;;;;;;;18.00;8.90;;;;;;;10.08;91.02;99636.91;130326;1267;108670;-84
2024/02/03 12:29:31;;;;;;;14.60;7.00;;;;;;;10.08;91.42;99642.27;129953;1264;107465;-86
2024/02/03 12:33:20;;;;;;;16.80;5.80;;;;;;;10.10;91.28;99647.34;129884;1268;107642;-87
2024/02/03 12:37:01;;;;;;;13.40;5.60;;;;;;;10.15;91.00;99637.81;130208;1269;108840;-85
2024/02/03 12:41:02;;;;;;;14.30;5.70;;;;;;;10.20;90.80;99640.27;129611;1273;107594;-87
2024/02/03 12:44:12;;;;;;;12.30;5.90;;;;;;;10.17;91.08;99642.83;129942;1267;107579;-86
2024/02/03 12:47:18;;;;;;;19.70;7.50;;;;;;;10.14;90.79;99648.02;130228;1270;105784;-86
2024/02/03 12:50:24;;;;;;;8.70;4.50;;;;;;;10.14;90.65;99640.70;129959;1281;108678;-87
2024/02/03 12:53:31;;;;;;;13.10;5.60;;;;;;;10.12;91.06;99641.63;129891;1267;108102;-84
2024/02/03 12:56:38;;;;;;;13.00;5.90;;;;;;;10.08;91.37;99642.98;130104;1264;108526;-87
2024/02/03 12:59:44;;;;;;;14.30;5.80;;;;;;;10.07;91.59;99640.77;129855;1267;108589;-86
2024/02/03 13:02:53;;;;;;;11.50;5.30;;;;;;;10.07;91.75;99637.91;129809;1268;107943;-86
2024/02/03 13:05:59;;;;;;;18.00;7.20;;;;;;;10.09;91.13;99640.21;129908;1264;107217;-86
2024/02/03 13:09:07;;;;;;;10.70;4.80;;;;;;;10.16;91.14;99644.72;129912;1269;108571;-86
2024/02/03 13:12:13;;;;;;;10.40;5.30;;;;;;;10.36;90.58;99642.98;129910;1263;108027;-87
2024/02/03 13:15:19;;;;;;;9.10;4.20;;;;;;;10.48;89.62;99635.52;130225;1277;107770;-87
2024/02/03 13:18:26;;;;;;;6.70;3.80;;;;;;;10.50;89.76;99634.59;130105;1267;108647;-84
2024/02/03 13:21:32;;;;;;;52.10;23.40;;;;;;;10.54;89.78;99636.94;131053;1267;109210;-87
2024/02/03 13:24:41;;;;;;;71.20;36.20;;;;;;;10.67;89.74;99638.40;130136;1264;108555;-88
2024/02/03 13:27:48;;;;;;;189.10;94.10;;;;;;;10.73;88.61;99642.73;129864;1267;109088;-82
2024/02/03 13:30:54;;;;;;;80.10;38.40;;;;;;;10.68;88.39;99645.95;130004;1264;108611;-89
2024/02/03 13:34:03;;;;;;;56.60;25.50;;;;;;;10.61;89.76;99639.52;130109;1264;107038;-95
2024/02/03 13:37:09;;;;;;;97.30;39.10;;;;;;;10.63;89.66;99636.01;130324;1263;108049;-92
2024/02/03 13:40:15;;;;;;;68.70;26.70;;;;;;;10.59;89.32;99639.75;130363;1263;106254;-92
2024/02/03 13:43:20;;;;;;;176.90;72.50;;;;;;;10.50;88.64;99643.79;129842;1270;106830;-88
2024/02/03 13:46:27;;;;;;;21.80;10.80;;;;;;;10.48;88.70;99642.29;130068;1264;108570;-85
2024/02/03 13:49:32;;;;;;;10.80;6.90;;;;;;;10.45;88.60;99644.05;129937;1277;106812;-87
2024/02/03 13:52:38;;;;;;;20.30;11.20;;;;;;;10.37;87.68;99646.33;130149;1267;108569;-87
2024/02/03 13:55:44;;;;;;;11.10;7.00;;;;;;;10.31;87.79;99648.21;130034;1269;108676;-83
2024/02/03 13:58:50;;;;;;;17.20;11.20;;;;;;;10.26;87.94;99651.89;129997;1264;106559;-85
2024/02/03 14:01:56;;;;;;;50.00;33.00;;;;;;;10.25;88.30;99655.42;130101;1268;109426;-84
2024/02/03 14:05:02;;;;;;;28.10;18.50;;;;;;;10.29;88.70;99666.20;129975;1267;108675;-87
2024/02/03 14:08:10;;;;;;;21.40;14.50;;;;;;;10.37;88.99;99665.10;129917;1267;107814;-85
2024/02/03 14:11:16;;;;;;;10.10;5.10;;;;;;;10.41;88.43;99666.63;130063;1270;108491;-85
2024/02/03 14:14:27;;;;;;;4.50;3.00;;;;;;;10.40;87.86;99664.13;129849;1263;107060;-93
2024/02/03 14:17:32;;;;;;;4.10;3.30;;;;;;;10.37;87.79;99665.83;129862;1267;108538;-94